Time;durP1;ratioP1;P1;durP2;ratioP2;P2;SDS_P1;SDS_P2;PMS_P1;PMS_P2;Temp;Humidity;BMP_temperature;BMP_pressure;BME280_temperature;BME280_humidity;BME280_pressure;Samples;Min_cycle;Max_cycle;Signal;HPM_P1;HPM_P2
2023/12/27 00:00:21;;;;;;;;;;;17.80;66.50;;;;;;5059736;28;1354;-69
2023/12/27 00:02:47;;;;;;;;;;;17.80;66.50;;;;;;5059464;28;1581;-70
2023/12/27 00:05:12;;;;;;;;;;;17.80;66.50;;;;;;5057602;28;1445;-69
2023/12/27 00:07:38;;;;;;;;;;;17.80;66.50;;;;;;5057508;28;1914;-69
2023/12/27 00:10:05;;;;;;;;;;;17.80;66.50;;;;;;5059917;28;1693;-68
2023/12/27 00:12:30;;;;;;;;;;;17.80;66.50;;;;;;5089903;28;1307;-69
2023/12/27 00:14:56;;;;;;;;;;;17.80;66.50;;;;;;5059373;28;1157;-68
2023/12/27 00:17:21;;;;;;;;;;;17.80;66.50;;;;;;5061870;28;1806;-69
2023/12/27 00:19:47;;;;;;;;;;;17.80;66.50;;;;;;5055469;28;1238;-70
2023/12/27 00:22:14;;;;;;;;;;;17.80;66.50;;;;;;5059956;28;1291;-70
2023/12/27 00:24:39;;;;;;;;;;;17.80;66.50;;;;;;5062436;28;1444;-70
2023/12/27 00:27:05;;;;;;;;;;;17.80;66.50;;;;;;5058832;28;1922;-70
2023/12/27 00:29:30;;;;;;;;;;;17.80;66.50;;;;;;5057503;28;1328;-70
2023/12/27 00:31:56;;;;;;;;;;;17.80;66.50;;;;;;5057970;28;1604;-70
2023/12/27 00:34:21;;;;;;;;;;;17.80;66.60;;;;;;5091262;28;1770;-70
2023/12/27 00:36:47;;;;;;;;;;;17.80;66.60;;;;;;5057339;28;1242;-70
2023/12/27 00:39:12;;;;;;;;;;;17.80;66.60;;;;;;5056382;28;1518;-70
2023/12/27 00:41:37;;;;;;;;;;;17.80;66.50;;;;;;5056492;28;1532;-70
2023/12/27 00:44:03;;;;;;;;;;;17.80;66.60;;;;;;5058394;28;1572;-70
2023/12/27 00:46:29;;;;;;;;;;;17.80;66.60;;;;;;5058494;28;1989;-71
2023/12/27 00:48:54;;;;;;;;;;;17.80;66.60;;;;;;5060179;28;1250;-71
2023/12/27 00:51:20;;;;;;;;;;;17.80;66.60;;;;;;5059802;28;1666;-70
2023/12/27 00:53:45;;;;;;;;;;;17.70;66.50;;;;;;5058196;28;1268;-70
2023/12/27 00:56:11;;;;;;;;;;;17.70;66.50;;;;;;5057321;28;1360;-70
2023/12/27 00:58:36;;;;;;;;;;;17.70;66.50;;;;;;5057977;28;1522;-69
2023/12/27 01:01:02;;;;;;;;;;;17.80;66.60;;;;;;5057381;28;1434;-71
2023/12/27 01:03:27;;;;;;;;;;;17.70;66.60;;;;;;5057732;28;1225;-70
2023/12/27 01:05:53;;;;;;;;;;;17.70;66.50;;;;;;5053353;28;1942;-70
2023/12/27 01:08:18;;;;;;;;;;;17.70;66.60;;;;;;5058590;28;1508;-70
2023/12/27 01:10:44;;;;;;;;;;;17.70;66.60;;;;;;5055736;28;1370;-70
2023/12/27 01:13:09;;;;;;;;;;;17.70;66.60;;;;;;5056235;28;1358;-70
2023/12/27 01:15:35;;;;;;;;;;;17.80;66.70;;;;;;5056139;28;1489;-69
2023/12/27 01:18:00;;;;;;;;;;;17.70;66.60;;;;;;5059140;28;1426;-71
2023/12/27 01:20:27;;;;;;;;;;;17.70;66.60;;;;;;5061162;28;1390;-70
2023/12/27 01:22:53;;;;;;;;;;;17.70;66.60;;;;;;5058020;28;1409;-69
2023/12/27 01:25:18;;;;;;;;;;;17.70;66.60;;;;;;5062051;28;1665;-70
2023/12/27 01:27:46;;;;;;;;;;;17.70;66.60;;;;;;5058347;28;1902;-70
2023/12/27 01:30:11;;;;;;;;;;;17.70;66.60;;;;;;5058256;28;1193;-69
2023/12/27 01:32:37;;;;;;;;;;;17.70;66.60;;;;;;5059465;28;1300;-71
2023/12/27 01:35:02;;;;;;;;;;;17.70;66.60;;;;;;5061770;28;1604;-71
2023/12/27 01:37:28;;;;;;;;;;;17.80;66.70;;;;;;5062219;28;1296;-69
2023/12/27 01:39:53;;;;;;;;;;;17.80;66.70;;;;;;5058381;28;1122;-70
2023/12/27 01:42:19;;;;;;;;;;;17.70;66.60;;;;;;5064301;28;1469;-71
2023/12/27 01:44:44;;;;;;;;;;;17.70;66.60;;;;;;5057992;28;1594;-71
2023/12/27 01:47:10;;;;;;;;;;;17.80;67.50;;;;;;5065360;28;1898;-69
2023/12/27 01:49:35;;;;;;;;;;;17.70;66.60;;;;;;5096513;28;1598;-69
2023/12/27 01:52:01;;;;;;;;;;;17.70;66.60;;;;;;5096700;28;1654;-69
2023/12/27 01:54:26;;;;;;;;;;;17.70;66.60;;;;;;5061897;28;1318;-69
2023/12/27 01:56:52;;;;;;;;;;;17.70;66.70;;;;;;5059280;28;1260;-69
2023/12/27 01:59:17;;;;;;;;;;;17.70;66.70;;;;;;5064348;28;1421;-69
2023/12/27 02:01:43;;;;;;;;;;;17.70;66.60;;;;;;5062266;28;1199;-69
2023/12/27 02:04:08;;;;;;;;;;;17.70;66.60;;;;;;5063691;28;1504;-69
2023/12/27 02:06:34;;;;;;;;;;;17.70;66.70;;;;;;5060865;28;1959;-69
2023/12/27 02:08:59;;;;;;;;;;;17.70;66.70;;;;;;5091865;28;1269;-69
2023/12/27 02:11:25;;;;;;;;;;;17.70;66.70;;;;;;5062346;28;1456;-69
2023/12/27 02:13:50;;;;;;;;;;;17.70;66.70;;;;;;5062616;28;1240;-69
2023/12/27 02:16:20;;;;;;;;;;;17.70;66.70;;;;;;5059688;28;1293;-68
2023/12/27 02:18:45;;;;;;;;;;;17.70;66.70;;;;;;5063667;28;1946;-68
2023/12/27 02:21:11;;;;;;;;;;;17.70;66.70;;;;;;5096645;28;2305;-68
2023/12/27 02:23:36;;;;;;;;;;;17.70;66.70;;;;;;5095410;28;1344;-68
2023/12/27 02:26:02;;;;;;;;;;;17.70;66.70;;;;;;5061371;28;1879;-67
2023/12/27 02:28:27;;;;;;;;;;;17.70;66.70;;;;;;5093848;28;1363;-68
2023/12/27 02:30:56;;;;;;;;;;;17.70;66.70;;;;;;5098353;28;1311;-68
2023/12/27 02:33:21;;;;;;;;;;;17.70;66.70;;;;;;5060533;28;1608;-66
2023/12/27 02:35:47;;;;;;;;;;;17.70;66.70;;;;;;5062503;28;1708;-66
2023/12/27 02:38:12;;;;;;;;;;;17.70;66.70;;;;;;5061492;28;1318;-66
2023/12/27 02:40:38;;;;;;;;;;;17.70;66.70;;;;;;5093863;28;1497;-66
2023/12/27 02:43:03;;;;;;;;;;;17.70;66.80;;;;;;5058408;28;1292;-68
2023/12/27 02:45:29;;;;;;;;;;;17.70;66.70;;;;;;5060778;28;889;-68
2023/12/27 02:47:54;;;;;;;;;;;17.70;66.70;;;;;;5059358;28;1965;-68
2023/12/27 02:50:19;;;;;;;;;;;17.70;66.80;;;;;;5058856;28;1343;-68
2023/12/27 02:52:45;;;;;;;;;;;17.70;66.70;;;;;;5059424;28;1687;-69
2023/12/27 02:55:10;;;;;;;;;;;17.70;66.70;;;;;;5059970;28;1450;-68
2023/12/27 02:57:36;;;;;;;;;;;17.70;66.70;;;;;;5059690;28;1581;-68
2023/12/27 03:00:03;;;;;;;;;;;17.70;66.80;;;;;;5060382;28;1355;-68
2023/12/27 03:02:28;;;;;;;;;;;17.70;66.70;;;;;;5063308;28;1538;-68
2023/12/27 03:04:54;;;;;;;;;;;17.70;66.70;;;;;;5061342;28;1648;-68
2023/12/27 03:07:19;;;;;;;;;;;17.70;66.80;;;;;;5078352;28;1902;-68
2023/12/27 03:09:45;;;;;;;;;;;17.70;66.80;;;;;;5061616;28;1473;-68
2023/12/27 03:12:10;;;;;;;;;;;17.70;66.80;;;;;;5056371;28;1272;-68
2023/12/27 03:14:36;;;;;;;;;;;17.70;66.80;;;;;;5057510;28;1288;-68
2023/12/27 03:17:01;;;;;;;;;;;17.70;66.80;;;;;;5058439;28;1557;-68
2023/12/27 03:19:27;;;;;;;;;;;17.70;66.80;;;;;;5062442;28;1272;-68
2023/12/27 03:21:52;;;;;;;;;;;17.70;66.80;;;;;;5061775;28;1606;-68
2023/12/27 03:24:18;;;;;;;;;;;17.70;66.80;;;;;;5061767;28;1679;-68
2023/12/27 03:26:43;;;;;;;;;;;17.70;66.80;;;;;;5060764;28;1898;-68
2023/12/27 03:29:09;;;;;;;;;;;17.70;66.80;;;;;;5059557;28;1286;-68
2023/12/27 03:31:34;;;;;;;;;;;17.70;66.80;;;;;;5059449;28;1241;-68
2023/12/27 03:33:59;;;;;;;;;;;17.70;66.80;;;;;;5057766;28;1267;-69
2023/12/27 03:36:25;;;;;;;;;;;17.70;66.80;;;;;;5062925;28;1272;-68
2023/12/27 03:38:50;;;;;;;;;;;17.70;66.80;;;;;;5058021;28;1565;-69
2023/12/27 03:41:16;;;;;;;;;;;17.70;66.80;;;;;;5058917;28;1474;-69
2023/12/27 03:43:41;;;;;;;;;;;17.70;67.60;;;;;;5088018;28;1142;-67
2023/12/27 03:46:07;;;;;;;;;;;17.70;66.80;;;;;;5056086;28;1898;-67
2023/12/27 03:48:33;;;;;;;;;;;17.70;66.80;;;;;;5057541;28;1601;-68
2023/12/27 03:50:58;;;;;;;;;;;17.70;66.80;;;;;;5060662;28;1315;-68
2023/12/27 03:53:24;;;;;;;;;;;17.70;66.90;;;;;;5060343;28;1484;-69
2023/12/27 03:55:49;;;;;;;;;;;17.70;66.80;;;;;;5061456;28;1488;-67
2023/12/27 03:58:14;;;;;;;;;;;17.70;66.80;;;;;;5088867;28;1515;-68
2023/12/27 04:00:40;;;;;;;;;;;17.70;66.80;;;;;;5058676;28;1358;-69
2023/12/27 04:03:05;;;;;;;;;;;17.70;66.90;;;;;;5058854;28;1712;-69
2023/12/27 04:05:31;;;;;;;;;;;17.70;66.80;;;;;;5058734;28;1247;-68
2023/12/27 04:07:56;;;;;;;;;;;17.70;66.80;;;;;;5057237;28;2016;-67
2023/12/27 04:10:22;;;;;;;;;;;17.70;66.90;;;;;;5060392;28;1421;-67
2023/12/27 04:12:47;;;;;;;;;;;17.70;66.80;;;;;;5059743;28;1272;-69
2023/12/27 04:15:13;;;;;;;;;;;17.70;66.80;;;;;;5059345;28;1237;-68
2023/12/27 04:17:38;;;;;;;;;;;17.70;66.80;;;;;;5054876;28;1435;-69
2023/12/27 04:20:04;;;;;;;;;;;17.70;66.80;;;;;;5055707;28;1400;-68
2023/12/27 04:22:30;;;;;;;;;;;17.70;66.90;;;;;;5060078;28;1378;-68
2023/12/27 04:24:55;;;;;;;;;;;17.70;66.90;;;;;;5056940;28;1657;-68
2023/12/27 04:27:21;;;;;;;;;;;17.70;66.90;;;;;;5061240;28;1894;-68
2023/12/27 04:29:46;;;;;;;;;;;17.60;66.80;;;;;;5059200;28;1396;-68
2023/12/27 04:32:11;;;;;;;;;;;17.70;66.90;;;;;;5059257;28;1568;-68
2023/12/27 04:34:37;;;;;;;;;;;17.70;66.90;;;;;;5057692;28;1259;-68
2023/12/27 04:37:02;;;;;;;;;;;17.70;66.90;;;;;;5059603;28;1365;-68
2023/12/27 04:39:28;;;;;;;;;;;17.70;66.90;;;;;;5061010;28;1221;-67
2023/12/27 04:41:54;;;;;;;;;;;17.70;66.90;;;;;;5060143;28;1329;-68
2023/12/27 04:44:19;;;;;;;;;;;17.70;66.90;;;;;;5057776;28;1444;-66
2023/12/27 04:46:44;;;;;;;;;;;17.70;66.90;;;;;;5059878;28;1910;-67
2023/12/27 04:49:12;;;;;;;;;;;17.70;66.90;;;;;;5061449;28;1448;-67
2023/12/27 04:51:37;;;;;;;;;;;17.70;66.90;;;;;;5061269;28;1280;-68
2023/12/27 04:54:03;;;;;;;;;;;17.60;66.90;;;;;;5059803;28;1515;-68
2023/12/27 04:56:28;;;;;;;;;;;17.70;66.90;;;;;;5057840;28;1254;-68
2023/12/27 04:58:54;;;;;;;;;;;17.70;66.90;;;;;;5091516;28;1268;-68
2023/12/27 05:01:19;;;;;;;;;;;17.70;66.90;;;;;;5056724;28;1344;-68
2023/12/27 05:03:45;;;;;;;;;;;17.70;66.90;;;;;;5054662;28;1499;-68
2023/12/27 05:06:12;;;;;;;;;;;17.70;66.90;;;;;;5060929;28;1995;-68
2023/12/27 05:08:40;;;;;;;;;;;17.60;66.90;;;;;;5066355;28;1666;-67
2023/12/27 05:11:10;;;;;;;;;;;17.70;66.90;;;;;;5077481;28;1827;-68
2023/12/27 05:13:35;;;;;;;;;;;17.70;66.90;;;;;;5092291;28;1957;-67
2023/12/27 05:16:00;;;;;;;;;;;17.70;66.90;;;;;;5058915;28;1282;-68
2023/12/27 05:18:26;;;;;;;;;;;17.70;66.90;;;;;;5060840;28;1187;-67
2023/12/27 05:20:51;;;;;;;;;;;17.70;66.80;;;;;;5061398;28;1704;-67
2023/12/27 05:23:17;;;;;;;;;;;17.70;66.80;;;;;;5062570;28;1223;-67
2023/12/27 05:25:42;;;;;;;;;;;17.70;66.70;;;;;;5061701;28;933;-67
2023/12/27 05:28:08;;;;;;;;;;;17.70;66.60;;;;;;5062648;28;1902;-68
2023/12/27 05:30:33;;;;;;;;;;;17.80;66.60;;;;;;5060929;28;1390;-66
2023/12/27 05:32:58;;;;;;;;;;;17.80;66.40;;;;;;5061078;28;1569;-66
2023/12/27 05:35:24;;;;;;;;;;;17.90;66.40;;;;;;5061640;28;1667;-66
2023/12/27 05:37:49;;;;;;;;;;;17.90;66.30;;;;;;5060231;28;1291;-66
2023/12/27 05:40:15;;;;;;;;;;;17.90;66.20;;;;;;5061387;28;1245;-65
2023/12/27 05:42:41;;;;;;;;;;;17.90;66.10;;;;;;5063659;28;1598;-66
2023/12/27 05:45:09;;;;;;;;;;;17.90;66.00;;;;;;5061010;28;1556;-66
2023/12/27 05:47:34;;;;;;;;;;;18.00;66.70;;;;;;5063042;28;1942;-66
2023/12/27 05:50:00;;;;;;;;;;;18.00;65.80;;;;;;5057557;28;1120;-66
2023/12/27 05:52:25;;;;;;;;;;;18.00;65.70;;;;;;5069581;28;1651;-66
2023/12/27 05:54:51;;;;;;;;;;;18.00;65.70;;;;;;5060177;28;1350;-67
2023/12/27 05:57:16;;;;;;;;;;;18.00;65.60;;;;;;5063124;28;1668;-70
2023/12/27 05:59:42;;;;;;;;;;;18.00;65.60;;;;;;5063498;28;1265;-67
2023/12/27 06:02:07;;;;;;;;;;;18.10;65.60;;;;;;5059170;28;1449;-68
2023/12/27 06:04:34;;;;;;;;;;;18.10;65.50;;;;;;5062280;28;1381;-68
2023/12/27 06:07:00;;;;;;;;;;;18.10;65.50;;;;;;5060513;28;1977;-69
2023/12/27 06:09:25;;;;;;;;;;;18.10;65.40;;;;;;5060798;28;1421;-66
2023/12/27 06:11:51;;;;;;;;;;;18.10;65.40;;;;;;5060048;28;1306;-68
2023/12/27 06:14:16;;;;;;;;;;;18.10;65.40;;;;;;5060346;28;1258;-67
2023/12/27 06:16:43;;;;;;;;;;;18.10;65.30;;;;;;5059992;28;1240;-67
2023/12/27 06:19:08;;;;;;;;;;;18.10;65.20;;;;;;5061787;28;1477;-68
2023/12/27 06:21:34;;;;;;;;;;;18.10;65.20;;;;;;5060146;28;1561;-66
2023/12/27 06:23:59;;;;;;;;;;;18.20;65.20;;;;;;5060620;28;1329;-66
2023/12/27 06:26:24;;;;;;;;;;;18.20;65.20;;;;;;5060757;28;1951;-67
2023/12/27 06:28:50;;;;;;;;;;;18.10;65.10;;;;;;5060167;28;1470;-67
2023/12/27 06:31:16;;;;;;;;;;;18.20;65.10;;;;;;5060216;28;1370;-68
2023/12/27 06:33:41;;;;;;;;;;;18.20;65.10;;;;;;5060794;28;1338;-68
2023/12/27 06:36:07;;;;;;;;;;;18.20;65.00;;;;;;5062075;28;959;-68
2023/12/27 06:38:32;;;;;;;;;;;18.20;65.00;;;;;;5061993;28;1567;-69
2023/12/27 06:40:58;;;;;;;;;;;18.20;65.00;;;;;;5060245;28;1522;-69
2023/12/27 06:43:23;;;;;;;;;;;18.20;65.00;;;;;;5059676;28;1406;-69
2023/12/27 06:45:49;;;;;;;;;;;18.20;64.90;;;;;;5091241;28;1426;-69
2023/12/27 06:48:14;;;;;;;;;;;18.20;64.90;;;;;;5058597;28;1910;-69
2023/12/27 06:50:41;;;;;;;;;;;18.20;64.90;;;;;;5060319;28;1363;-68
2023/12/27 06:53:07;;;;;;;;;;;18.30;64.90;;;;;;5092805;28;1586;-67
2023/12/27 06:55:32;;;;;;;;;;;18.20;64.80;;;;;;5056475;28;1212;-67
2023/12/27 06:57:59;;;;;;;;;;;18.30;64.80;;;;;;5057956;28;1166;-70
2023/12/27 07:00:24;;;;;;;;;;;18.30;64.90;;;;;;5061227;28;1396;-70
2023/12/27 07:02:50;;;;;;;;;;;18.30;64.80;;;;;;5059677;28;1638;-67
2023/12/27 07:05:16;;;;;;;;;;;18.30;64.80;;;;;;5061404;28;1582;-67
2023/12/27 07:07:41;;;;;;;;;;;18.30;64.80;;;;;;5051640;28;4190;-68
2023/12/27 07:10:08;;;;;;;;;;;18.30;64.80;;;;;;5059825;28;1309;-67
2023/12/27 07:12:33;;;;;;;;;;;18.30;64.70;;;;;;5060827;28;1525;-68
2023/12/27 07:14:59;;;;;;;;;;;18.30;64.70;;;;;;5091561;28;1588;-67
2023/12/27 07:17:24;;;;;;;;;;;18.30;64.70;;;;;;5058711;28;1274;-68
2023/12/27 07:19:50;;;;;;;;;;;18.30;64.70;;;;;;5079416;28;1447;-68
2023/12/27 07:22:16;;;;;;;;;;;18.30;64.70;;;;;;5063140;28;1430;-68
2023/12/27 07:24:41;;;;;;;;;;;18.30;64.80;;;;;;5062234;28;1133;-67
2023/12/27 07:27:07;;;;;;;;;;;18.30;64.70;;;;;;5079709;28;1933;-69
2023/12/27 07:29:36;;;;;;;;;;;18.30;64.70;;;;;;5059518;28;854;-68
2023/12/27 07:32:02;;;;;;;;;;;18.30;64.70;;;;;;5063546;28;1300;-68
2023/12/27 07:34:28;;;;;;;;;;;18.30;64.80;;;;;;5092965;28;1679;-67
2023/12/27 07:36:53;;;;;;;;;;;18.30;64.80;;;;;;5059060;28;1418;-68
2023/12/27 07:39:19;;;;;;;;;;;18.30;64.80;;;;;;5060269;28;1300;-70
2023/12/27 07:41:44;;;;;;;;;;;18.20;64.70;;;;;;5092572;28;1410;-68
2023/12/27 07:44:10;;;;;;;;;;;18.20;64.80;;;;;;5059432;28;1255;-69
2023/12/27 07:46:35;;;;;;;;;;;18.30;64.90;;;;;;5091075;28;1914;-68
2023/12/27 07:49:04;;;;;;;;;;;18.20;64.80;;;;;;5062193;28;1304;-68
2023/12/27 07:51:29;;;;;;;;;;;18.20;64.80;;;;;;5091172;28;1280;-69
2023/12/27 07:53:55;;;;;;;;;;;18.20;64.90;;;;;;5061234;28;1103;-68
2023/12/27 07:56:20;;;;;;;;;;;18.20;64.90;;;;;;5058929;28;1561;-68
2023/12/27 07:58:49;;;;;;;;;;;18.20;64.90;;;;;;5058697;28;1289;-69
2023/12/27 08:01:14;;;;;;;;;;;18.20;64.90;;;;;;5062217;28;1479;-68
2023/12/27 08:03:40;;;;;;;;;;;18.20;65.00;;;;;;5058418;28;1481;-68
2023/12/27 08:06:06;;;;;;;;;;;18.20;65.00;;;;;;5063222;28;1901;-69
2023/12/27 08:08:35;;;;;;;;;;;18.20;65.00;;;;;;5092727;28;1257;-71
2023/12/27 08:11:01;;;;;;;;;;;18.20;65.00;;;;;;5061183;28;1419;-71
2023/12/27 08:13:27;;;;;;;;;;;18.20;65.00;;;;;;5090639;28;1460;-71
2023/12/27 08:15:52;;;;;;;;;;;18.20;65.00;;;;;;5060857;28;1206;-70
2023/12/27 08:18:17;;;;;;;;;;;18.20;65.00;;;;;;5062501;28;1316;-69
2023/12/27 08:20:43;;;;;;;;;;;18.20;65.00;;;;;;5060036;28;1408;-69
2023/12/27 08:23:08;;;;;;;;;;;18.20;65.00;;;;;;5063505;28;976;-69
2023/12/27 08:25:34;;;;;;;;;;;18.20;65.00;;;;;;5060858;28;921;-68
2023/12/27 08:28:01;;;;;;;;;;;18.20;65.00;;;;;;5060980;28;1914;-68
2023/12/27 08:30:27;;;;;;;;;;;18.20;65.10;;;;;;5058479;28;1378;-68
2023/12/27 08:32:53;;;;;;;;;;;18.20;65.10;;;;;;5091132;28;933;-68
2023/12/27 08:35:18;;;;;;;;;;;18.20;65.10;;;;;;5093160;28;1331;-69
2023/12/27 08:37:44;;;;;;;;;;;18.20;65.10;;;;;;5058362;28;1316;-68
2023/12/27 08:40:10;;;;;;;;;;;18.20;65.10;;;;;;5055327;28;1338;-68
2023/12/27 08:42:35;;;;;;;;;;;18.20;65.10;;;;;;5061573;28;1296;-68
2023/12/27 08:45:01;;;;;;;;;;;18.20;65.10;;;;;;5059784;28;1332;-69
2023/12/27 08:47:26;;;;;;;;;;;18.20;65.00;;;;;;5089522;28;1890;-68
2023/12/27 08:49:55;;;;;;;;;;;18.20;65.00;;;;;;5055693;28;1175;-68
2023/12/27 08:52:20;;;;;;;;;;;18.20;65.00;;;;;;5067506;28;1485;-68
2023/12/27 08:54:46;;;;;;;;;;;18.20;65.00;;;;;;5061618;28;1269;-68
2023/12/27 08:57:11;;;;;;;;;;;18.20;65.00;;;;;;5059563;28;1493;-69
2023/12/27 08:59:37;;;;;;;;;;;18.20;65.00;;;;;;5054754;28;1542;-70
2023/12/27 09:02:03;;;;;;;;;;;18.20;64.90;;;;;;5053548;28;1585;-70
2023/12/27 09:04:29;;;;;;;;;;;18.20;64.90;;;;;;5060838;28;1636;-70
2023/12/27 09:06:55;;;;;;;;;;;18.30;64.90;;;;;;5081316;28;4628;-69
2023/12/27 09:09:20;;;;;;;;;;;18.20;64.80;;;;;;5089112;28;4525;-69
2023/12/27 09:11:46;;;;;;;;;;;18.30;64.90;;;;;;5058917;28;1599;-69
2023/12/27 09:14:12;;;;;;;;;;;18.20;65.10;;;;;;5057628;28;1408;-69
2023/12/27 09:16:37;;;;;;;;;;;18.30;64.80;;;;;;5057225;28;1470;-69
2023/12/27 09:19:02;;;;;;;;;;;18.30;64.80;;;;;;5055220;28;1236;-69
2023/12/27 09:21:28;;;;;;;;;;;18.30;64.80;;;;;;5060795;28;1789;-69
2023/12/27 09:23:54;;;;;;;;;;;18.30;64.80;;;;;;5056535;28;1116;-69
2023/12/27 09:26:19;;;;;;;;;;;18.30;64.80;;;;;;5060456;28;1975;-69
2023/12/27 09:28:45;;;;;;;;;;;18.30;64.80;;;;;;5056054;28;1158;-70
2023/12/27 09:31:10;;;;;;;;;;;18.30;64.70;;;;;;5057637;28;1606;-69
2023/12/27 09:33:36;;;;;;;;;;;18.30;64.70;;;;;;5089490;28;1561;-68
2023/12/27 09:36:02;;;;;;;;;;;18.30;64.80;;;;;;5055424;28;1396;-69
2023/12/27 09:38:27;;;;;;;;;;;18.30;64.70;;;;;;5049041;28;4045;-69
2023/12/27 09:40:53;;;;;;;;;;;18.30;64.80;;;;;;5090055;28;1486;-67
2023/12/27 09:43:18;;;;;;;;;;;18.30;64.80;;;;;;5059016;28;1470;-67
2023/12/27 09:45:44;;;;;;;;;;;18.30;64.70;;;;;;5054747;28;1473;-68
2023/12/27 09:48:10;;;;;;;;;;;18.30;64.80;;;;;;5088935;28;1898;-69
2023/12/27 09:50:36;;;;;;;;;;;18.30;64.80;;;;;;5057335;28;1385;-70
2023/12/27 09:53:02;;;;;;;;;;;18.30;64.80;;;;;;5060224;28;1635;-70
2023/12/27 09:55:27;;;;;;;;;;;18.30;64.80;;;;;;5086157;28;1589;-70
2023/12/27 09:57:53;;;;;;;;;;;18.30;64.80;;;;;;5091405;28;1964;-70
2023/12/27 10:00:18;;;;;;;;;;;18.20;64.80;;;;;;5093765;28;1350;-70
2023/12/27 10:02:44;;;;;;;;;;;18.20;65.60;;;;;;5091521;28;1351;-71
2023/12/27 10:05:36;;;;;;;;;;;18.30;64.90;;;;;;5060158;28;1357;-70
2023/12/27 10:08:01;;;;;;;;;;;18.20;64.90;;;;;;5059909;28;1911;-69
2023/12/27 10:10:27;;;;;;;;;;;18.30;64.90;;;;;;5061012;28;1781;-71
2023/12/27 10:12:53;;;;;;;;;;;18.20;64.90;;;;;;5062717;28;946;-70
2023/12/27 10:15:18;;;;;;;;;;;18.20;64.90;;;;;;5059884;28;1386;-70
2023/12/27 10:17:44;;;;;;;;;;;18.20;64.90;;;;;;5057334;28;1930;-70
2023/12/27 10:20:11;;;;;;;;;;;18.30;64.90;;;;;;5063196;28;1477;-70
2023/12/27 10:22:36;;;;;;;;;;;18.20;64.80;;;;;;5059767;28;1434;-70
2023/12/27 10:25:03;;;;;;;;;;;18.20;64.80;;;;;;5076617;28;1452;-69
2023/12/27 10:27:32;;;;;;;;;;;18.30;64.90;;;;;;5062513;28;1967;-70
2023/12/27 10:29:59;;;;;;;;;;;18.20;64.80;;;;;;5060553;28;1363;-70
2023/12/27 10:32:25;;;;;;;;;;;18.30;64.90;;;;;;5063463;28;1713;-70
2023/12/27 10:34:50;;;;;;;;;;;18.30;64.90;;;;;;5065143;28;1165;-70
2023/12/27 10:37:17;;;;;;;;;;;18.20;64.80;;;;;;5092458;28;1285;-70
2023/12/27 10:39:45;;;;;;;;;;;18.30;64.80;;;;;;5088490;28;1310;-69
2023/12/27 10:42:12;;;;;;;;;;;18.30;64.90;;;;;;5056125;28;1371;-70
2023/12/27 10:44:37;;;;;;;;;;;18.30;64.80;;;;;;5058840;28;1926;-70
2023/12/27 10:47:03;;;;;;;;;;;18.30;64.80;;;;;;5059970;28;1971;-71
2023/12/27 10:49:29;;;;;;;;;;;18.30;64.80;;;;;;5059769;28;1442;-70
2023/12/27 10:51:55;;;;;;;;;;;18.30;64.80;;;;;;5091883;28;1347;-70
2023/12/27 10:54:21;;;;;;;;;;;18.30;64.80;;;;;;5090004;28;2174;-69
2023/12/27 10:56:46;;;;;;;;;;;18.30;64.80;;;;;;5093130;28;1317;-69
2023/12/27 10:59:12;;;;;;;;;;;18.30;64.80;;;;;;5076135;28;1492;-70
2023/12/27 11:01:38;;;;;;;;;;;18.30;64.80;;;;;;5092470;28;1410;-70
2023/12/27 11:04:05;;;;;;;;;;;18.30;64.80;;;;;;5057260;28;1163;-70
2023/12/27 11:06:30;;;;;;;;;;;18.30;64.80;;;;;;5090731;28;2321;-70
2023/12/27 11:08:55;;;;;;;;;;;18.30;64.70;;;;;;5057562;28;1291;-71
2023/12/27 11:11:21;;;;;;;;;;;18.30;64.70;;;;;;5061196;28;1304;-70
2023/12/27 11:13:47;;;;;;;;;;;18.30;64.70;;;;;;5061125;28;1120;-69
2023/12/27 11:16:12;;;;;;;;;;;18.30;64.70;;;;;;5090784;28;1207;-70
2023/12/27 11:18:38;;;;;;;;;;;18.30;64.60;;;;;;5088945;28;1567;-70
2023/12/27 11:21:03;;;;;;;;;;;18.30;64.60;;;;;;5059920;28;1439;-69
2023/12/27 11:23:29;;;;;;;;;;;18.30;64.50;;;;;;5094449;28;1240;-70
2023/12/27 11:25:54;;;;;;;;;;;18.30;64.50;;;;;;5056828;28;1236;-70
2023/12/27 11:28:20;;;;;;;;;;;18.30;64.50;;;;;;5089393;28;1941;-70
2023/12/27 11:30:46;;;;;;;;;;;18.40;64.60;;;;;;5061783;28;1651;-69
2023/12/27 11:33:32;;;;;;;;;;;18.30;64.50;;;;;;5090024;28;1032;-69
2023/12/27 11:35:57;;;;;;;;;;;18.30;64.50;;;;;;5059114;28;1388;-69
2023/12/27 11:38:26;;;;;;;;;;;18.40;64.60;;;;;;5058804;28;1007;-70
2023/12/27 11:40:52;;;;;;;;;;;18.30;64.50;;;;;;5057892;28;1606;-69
2023/12/27 11:43:18;;;;;;;;;;;18.30;64.50;;;;;;5092026;28;1489;-69
2023/12/27 11:45:57;;;;;;;;;;;18.30;64.50;;;;;;5059393;28;1247;-68
2023/12/27 11:48:22;;;;;;;;;;;18.30;64.50;;;;;;5059101;28;1894;-69
2023/12/27 11:50:48;;;;;;;;;;;18.30;64.50;;;;;;5055696;28;1452;-69
2023/12/27 11:53:14;;;;;;;;;;;18.30;64.50;;;;;;5061011;28;1225;-70
2023/12/27 11:55:39;;;;;;;;;;;18.30;64.50;;;;;;5061141;28;1419;-70
2023/12/27 11:58:05;;;;;;;;;;;18.30;64.50;;;;;;5078604;28;1572;-70
2023/12/27 12:00:30;;;;;;;;;;;18.30;64.50;;;;;;5059008;28;1506;-70
2023/12/27 12:02:57;;;;;;;;;;;18.30;64.50;;;;;;5053746;28;1279;-70
2023/12/27 12:05:41;;;;;;;;;;;18.40;64.50;;;;;;5057106;28;1543;-70
2023/12/27 12:08:12;;;;;;;;;;;18.40;64.50;;;;;;5059095;28;1897;-70
2023/12/27 12:10:38;;;;;;;;;;;18.40;64.40;;;;;;5057494;28;1589;-70
2023/12/27 12:13:03;;;;;;;;;;;18.40;64.40;;;;;;5093133;28;1118;-70
2023/12/27 12:15:29;;;;;;;;;;;18.40;64.30;;;;;;5043126;28;1485;-69
2023/12/27 12:17:55;;;;;;;;;;;18.40;64.20;;;;;;5093175;28;1286;-70
2023/12/27 12:20:21;;;;;;;;;;;18.40;64.20;;;;;;5088033;28;1405;-70
2023/12/27 12:22:48;;;;;;;;;;;18.40;64.10;;;;;;5059436;28;1297;-71
2023/12/27 12:25:14;;;;;;;;;;;18.40;64.10;;;;;;5058251;28;1438;-70
2023/12/27 12:27:43;;;;;;;;;;;18.50;64.10;;;;;;5089484;28;1906;-70
2023/12/27 12:30:09;;;;;;;;;;;18.50;64.10;;;;;;5057938;28;1584;-69
2023/12/27 12:32:39;;;;;;;;;;;18.50;64.00;;;;;;5057898;28;1387;-69
2023/12/27 12:35:05;;;;;;;;;;;18.50;64.00;;;;;;5056377;28;1582;-70
2023/12/27 12:37:31;;;;;;;;;;;18.50;64.00;;;;;;5056471;28;1308;-69
2023/12/27 12:39:56;;;;;;;;;;;18.50;64.00;;;;;;5053345;28;1485;-69
2023/12/27 12:42:22;;;;;;;;;;;18.50;63.90;;;;;;5055248;28;1401;-70
2023/12/27 12:44:47;;;;;;;;;;;18.50;63.90;;;;;;5087744;28;1261;-69
2023/12/27 12:47:13;;;;;;;;;;;18.50;63.90;;;;;;5082247;28;2174;-71
2023/12/27 12:49:38;;;;;;;;;;;18.50;63.90;;;;;;5056942;28;2104;-69
2023/12/27 12:52:04;;;;;;;;;;;18.50;63.90;;;;;;5059710;28;1498;-69
2023/12/27 12:54:30;;;;;;;;;;;18.50;63.90;;;;;;5059448;28;1594;-68
2023/12/27 12:56:59;;;;;;;;;;;18.50;64.60;;;;;;5059606;28;1270;-70
2023/12/27 12:59:25;;;;;;;;;;;18.50;63.90;;;;;;5091596;28;2022;-70
2023/12/27 13:01:51;;;;;;;;;;;18.50;64.10;;;;;;5057229;28;1532;-69
2023/12/27 13:04:16;;;;;;;;;;;18.50;63.80;;;;;;5057881;28;1331;-69
2023/12/27 13:06:41;;;;;;;;;;;18.50;63.80;;;;;;5056694;28;1906;-70
2023/12/27 13:09:07;;;;;;;;;;;18.50;63.90;;;;;;5093108;28;1251;-69
2023/12/27 13:11:34;;;;;;;;;;;18.50;63.90;;;;;;5090405;28;1890;-70
2023/12/27 13:14:00;;;;;;;;;;;18.60;63.80;;;;;;5088812;28;1297;-70
2023/12/27 13:16:26;;;;;;;;;;;18.60;63.80;;;;;;5054548;28;1941;-70
2023/12/27 13:18:52;;;;;;;;;;;18.50;63.80;;;;;;5088935;28;1525;-70
2023/12/27 13:21:19;;;;;;;;;;;18.60;63.80;;;;;;5091120;28;1573;-70
2023/12/27 13:23:44;;;;;;;;;;;18.60;63.80;;;;;;5055869;28;1536;-70
2023/12/27 13:26:16;;;;;;;;;;;18.60;63.70;;;;;;5058763;28;1426;-69
2023/12/27 13:28:42;;;;;;;;;;;18.60;63.80;;;;;;5059757;28;1505;-69
2023/12/27 13:31:08;;;;;;;;;;;18.60;63.70;;;;;;5065327;28;1485;-69
2023/12/27 13:33:34;;;;;;;;;;;18.60;63.70;;;;;;5058390;28;1736;-71
2023/12/27 13:35:59;;;;;;;;;;;18.60;63.70;;;;;;5092921;28;1244;-70
2023/12/27 13:38:25;;;;;;;;;;;18.60;63.80;;;;;;5093585;28;1456;-69
2023/12/27 13:40:51;;;;;;;;;;;18.60;63.70;;;;;;5063385;28;1419;-70
2023/12/27 13:43:16;;;;;;;;;;;18.60;63.70;;;;;;5096586;28;1234;-70
2023/12/27 13:45:42;;;;;;;;;;;18.60;63.70;;;;;;5059396;28;1775;-70
2023/12/27 13:48:08;;;;;;;;;;;18.60;63.70;;;;;;5064658;28;1902;-70
2023/12/27 13:50:33;;;;;;;;;;;18.60;63.70;;;;;;5061846;28;1646;-70
2023/12/27 13:53:01;;;;;;;;;;;18.60;63.70;;;;;;5061339;28;1256;-71
2023/12/27 13:55:26;;;;;;;;;;;18.60;63.70;;;;;;5060077;28;1315;-70
2023/12/27 13:57:52;;;;;;;;;;;18.60;63.70;;;;;;5061043;28;1304;-70
2023/12/27 14:00:18;;;;;;;;;;;18.60;63.80;;;;;;5062883;28;1332;-69
2023/12/27 14:02:44;;;;;;;;;;;18.60;63.70;;;;;;5058871;28;2021;-69
2023/12/27 14:05:09;;;;;;;;;;;18.60;63.80;;;;;;5092848;28;1472;-70
2023/12/27 14:07:35;;;;;;;;;;;18.60;63.70;;;;;;5062475;28;1979;-69
2023/12/27 14:10:01;;;;;;;;;;;18.60;63.70;;;;;;5060685;28;1300;-70
2023/12/27 14:12:28;;;;;;;;;;;18.60;63.80;;;;;;5061463;28;1765;-69
2023/12/27 14:14:54;;;;;;;;;;;18.60;63.70;;;;;;5090323;28;1250;-68
2023/12/27 14:17:19;;;;;;;;;;;18.60;63.70;;;;;;5093134;28;1582;-68
2023/12/27 14:19:45;;;;;;;;;;;18.50;63.70;;;;;;5062435;28;1262;-68
2023/12/27 14:22:10;;;;;;;;;;;18.50;63.80;;;;;;5061288;28;1447;-68